createdAt,value
2022-08-05T00:01:36.511Z,101719.34
2022-08-05T00:04:17.077Z,101724.06
2022-08-05T00:06:43.916Z,101725.91
2022-08-05T00:09:13.196Z,101730.41
2022-08-05T00:11:49.177Z,101732.41
2022-08-05T00:14:21.825Z,101738.09
2022-08-05T00:16:54.324Z,101738.47
2022-08-05T00:19:25.052Z,101736.78
2022-08-05T00:21:59.629Z,101727.06
2022-08-05T00:24:30.698Z,101722.56
2022-08-05T00:26:58.733Z,101715.72
2022-08-05T00:29:25.956Z,101723.09
2022-08-05T00:32:12.551Z,101730.09
2022-08-05T00:34:53.953Z,101721.41
2022-08-05T00:37:50.856Z,101711.06
2022-08-05T00:40:17.655Z,101720.25
2022-08-05T00:42:53.461Z,101724.09
2022-08-05T00:45:25.031Z,101726.13
2022-08-05T00:48:07.137Z,101720.75
2022-08-05T00:50:34.157Z,101725.47
2022-08-05T00:53:00.852Z,101721.94
2022-08-05T00:55:42.243Z,101725.59
2022-08-05T00:58:11.196Z,101727.44
2022-08-05T01:00:39.015Z,101735.47
2022-08-05T01:03:07.637Z,101726.09
2022-08-05T01:05:35.083Z,101728.25
2022-08-05T01:08:41.181Z,101719.75
2022-08-05T01:10:53.984Z,101726.94
2022-08-05T01:13:57.997Z,101734.78
2022-08-05T01:16:33.879Z,101725.25
2022-08-05T01:19:11.559Z,101730.13
2022-08-05T01:21:55.520Z,101730.13
2022-08-05T01:24:56.300Z,101734.13
2022-08-05T01:27:50.474Z,101736.13
2022-08-05T01:30:34.800Z,101732.78
2022-08-05T01:33:06.079Z,101731.09
2022-08-05T01:35:52.039Z,101734.13
2022-08-05T01:38:27.452Z,101735.97
2022-08-05T01:40:58.736Z,101733.47
2022-08-05T01:43:27.786Z,101739.13
2022-08-05T01:45:57.048Z,101751.84
2022-08-05T01:48:26.850Z,101755.50
2022-08-05T01:50:56.393Z,101755.81
2022-08-05T01:53:58.025Z,101759.84
2022-08-05T01:56:13.338Z,101760.84
2022-08-05T01:59:02.438Z,101760.16
2022-08-05T02:01:40.321Z,101759.69
2022-08-05T02:04:10.498Z,101753.50
2022-08-05T02:06:38.979Z,101747.31
2022-08-05T02:09:07.122Z,101751.13
2022-08-05T02:11:47.800Z,101751.31
2022-08-05T02:14:26.288Z,101756.13
2022-08-05T02:16:55.347Z,101739.63
2022-08-05T02:19:34.548Z,101741.09
2022-08-05T02:22:25.584Z,101750.44
2022-08-05T02:25:01.999Z,101753.63
2022-08-05T02:27:57.908Z,101750.09
2022-08-05T02:30:22.372Z,101747.75
2022-08-05T02:32:52.436Z,101751.25
2022-08-05T02:35:28.198Z,101741.41
2022-08-05T02:38:02.367Z,101740.06
2022-08-05T02:40:29.983Z,101750.22
2022-08-05T02:42:58.712Z,101741.72
2022-08-05T02:45:26.268Z,101731.34
2022-08-05T02:48:07.357Z,101730.97
2022-08-05T02:50:43.699Z,101732.97
2022-08-05T02:53:11.764Z,101726.63
2022-08-05T02:55:53.802Z,101736.28
2022-08-05T02:58:24.611Z,101731.78
2022-08-05T03:00:55.883Z,101733.44
2022-08-05T03:03:23.683Z,101733.63
2022-08-05T03:06:55.389Z,101725.94
2022-08-05T03:08:42.677Z,101727.91
2022-08-05T03:11:56.215Z,101729.09
2022-08-05T03:14:13.473Z,101739.94
2022-08-05T03:16:40.358Z,101737.28
2022-08-05T03:19:16.895Z,101731.94
2022-08-05T03:21:53.224Z,101741.59
2022-08-05T03:24:26.826Z,101740.59
2022-08-05T03:26:57.206Z,101752.94
2022-08-05T03:29:23.857Z,101741.25
2022-08-05T03:31:56.839Z,101732.25
2022-08-05T03:34:27.848Z,101736.75
2022-08-05T03:36:55.136Z,101735.06
2022-08-05T03:39:27.117Z,101735.91
2022-08-05T03:41:56.116Z,101732.56
2022-08-05T03:44:23.553Z,101729.38
2022-08-05T03:46:49.951Z,101730.72
2022-08-05T03:49:16.412Z,101740.03
2022-08-05T03:52:36.991Z,101746.53
2022-08-05T03:56:04.437Z,101742.84
2022-08-05T03:58:03.051Z,101750.03
2022-08-05T04:00:32.316Z,101752.19
2022-08-05T04:03:01.464Z,101750.53
2022-08-05T04:05:33.283Z,101756.88
2022-08-05T04:08:14.828Z,101752.16
2022-08-05T04:10:52.674Z,101741.81
2022-08-05T04:13:21.568Z,101749.13
2022-08-05T04:15:52.706Z,101748.47
2022-08-05T04:18:30.269Z,101750.47
2022-08-05T04:20:57.659Z,101748.09
2022-08-05T04:24:00.198Z,101746.75
2022-08-05T04:26:13.881Z,101758.72
2022-08-05T04:28:50.823Z,101749.06
2022-08-05T04:31:18.934Z,101763.91
2022-08-05T04:34:18.751Z,101762.44
2022-08-05T04:36:44.732Z,101767.81
2022-08-05T04:39:13.430Z,101764.84
2022-08-05T04:41:39.909Z,101761.19
2022-08-05T04:44:08.817Z,101764.50
2022-08-05T04:46:36.349Z,101756.50
2022-08-05T04:49:02.755Z,101758.34
2022-08-05T04:51:30.636Z,101756.66
2022-08-05T04:53:57.337Z,101757.84
2022-08-05T04:56:34.929Z,101752.81
2022-08-05T04:59:21.754Z,101758.13
2022-08-05T05:02:07.481Z,101751.97
2022-08-05T05:04:38.509Z,101755.09
2022-08-05T05:07:11.636Z,101767.47
2022-08-05T05:09:42.352Z,101764.09
2022-08-05T05:12:10.822Z,101767.59
2022-08-05T05:14:38.070Z,101765.47
2022-08-05T05:17:18.703Z,101766.69
2022-08-05T05:19:50.135Z,101769.22
2022-08-05T05:22:24.151Z,101764.91
2022-08-05T05:24:57.732Z,101769.31
2022-08-05T05:27:45.168Z,101770.00
2022-08-05T05:30:15.454Z,101769.34
2022-08-05T05:32:56.997Z,101765.66
2022-08-05T05:35:27.745Z,101772.00
2022-08-05T05:38:01.305Z,101762.69
2022-08-05T05:40:29.901Z,101767.38
2022-08-05T05:42:57.077Z,101774.09
2022-08-05T05:45:24.552Z,101773.91
2022-08-05T05:48:06.424Z,101771.25
2022-08-05T05:50:43.979Z,101772.44
2022-08-05T05:53:21.587Z,101777.53
2022-08-05T05:55:51.980Z,101777.41
2022-08-05T05:58:32.122Z,101778.38
2022-08-05T06:01:04.905Z,101787.59
2022-08-05T06:04:01.226Z,101783.41
2022-08-05T06:06:27.756Z,101795.59
2022-08-05T06:08:54.502Z,101796.28
2022-08-05T06:11:20.965Z,101796.66
2022-08-05T06:13:50.434Z,101796.97
2022-08-05T06:16:29.648Z,101784.88
2022-08-05T06:19:05.422Z,101788.53
2022-08-05T06:21:36.983Z,101787.63
2022-08-05T06:24:12.271Z,101791.91
2022-08-05T06:26:51.370Z,101796.00
2022-08-05T06:29:25.145Z,101798.34
2022-08-05T06:32:21.081Z,101802.44
2022-08-05T06:34:48.197Z,101799.50
2022-08-05T06:37:20.216Z,101794.09
2022-08-05T06:40:07.031Z,101800.22
2022-08-05T06:42:33.478Z,101802.22
2022-08-05T06:44:59.966Z,101796.28
2022-08-05T06:48:37.162Z,101797.84
2022-08-05T06:50:18.201Z,101807.75
2022-08-05T06:52:44.530Z,101809.34
2022-08-05T06:55:25.263Z,101806.53
2022-08-05T06:58:02.241Z,101808.19
2022-08-05T07:00:31.352Z,101814.28
2022-08-05T07:02:57.755Z,101824.13
2022-08-05T07:05:27.571Z,101823.47
2022-08-05T07:08:03.634Z,101819.84
2022-08-05T07:10:32.768Z,101821.50
2022-08-05T07:13:56.859Z,101829.09
2022-08-05T07:17:57.371Z,101827.47
2022-08-05T07:19:11.407Z,101834.78
2022-08-05T07:22:00.383Z,101843.25
2022-08-05T07:24:28.733Z,101842.16
2022-08-05T07:26:56.910Z,101847.50
2022-08-05T07:29:25.350Z,101854.00
2022-08-05T07:32:11.987Z,101853.69
2022-08-05T07:34:42.438Z,101855.81
2022-08-05T07:37:09.144Z,101858.19
2022-08-05T07:40:04.419Z,101856.44
2022-08-05T07:42:33.379Z,101864.84
2022-08-05T07:45:01.090Z,101861.53
2022-08-05T07:47:27.534Z,101857.28
2022-08-05T07:50:09.345Z,101862.59
2022-08-05T07:52:40.363Z,101865.09
2022-08-05T07:55:15.684Z,101863.84
2022-08-05T07:57:58.889Z,101872.38
2022-08-05T08:00:29.337Z,101875.44
2022-08-05T08:03:14.637Z,101879.69
2022-08-05T08:05:49.454Z,101876.25
2022-08-05T08:08:16.356Z,101881.81
2022-08-05T08:10:48.952Z,101884.03
2022-08-05T08:13:22.111Z,101891.13
2022-08-05T08:16:35.038Z,101890.91
2022-08-05T08:18:42.445Z,101882.72
2022-08-05T08:21:17.617Z,101894.09
2022-08-05T08:24:03.939Z,101890.50
2022-08-05T08:26:30.628Z,101897.19
2022-08-05T08:28:59.792Z,101901.41
2022-08-05T08:31:36.175Z,101899.78
2022-08-05T08:34:02.811Z,101911.41
2022-08-05T08:36:37.625Z,101903.13
2022-08-05T08:39:15.074Z,101906.81
2022-08-05T08:41:51.119Z,101919.69
2022-08-05T08:45:22.543Z,101915.56
2022-08-05T08:47:21.841Z,101924.25
2022-08-05T08:50:23.287Z,101926.16
2022-08-05T08:53:08.052Z,101928.50
2022-08-05T08:56:04.713Z,101934.25
2022-08-05T08:58:43.415Z,101936.84
2022-08-05T09:01:16.225Z,101940.03
2022-08-05T09:03:46.227Z,101934.94
2022-08-05T09:06:17.176Z,101938.38
2022-08-05T09:08:46.783Z,101934.69
2022-08-05T09:11:14.767Z,101931.47
2022-08-05T09:14:10.183Z,101934.84
2022-08-05T09:16:29.946Z,101934.69
2022-08-05T09:18:57.151Z,101939.34
2022-08-05T09:22:24.908Z,101952.22
2022-08-05T09:24:15.411Z,101947.00
2022-08-05T09:26:43.704Z,101947.50
2022-08-05T09:29:10.706Z,101950.50
2022-08-05T09:32:40.694Z,101949.13
2022-08-05T09:34:54.945Z,101957.81
2022-08-05T09:38:12.872Z,101960.88
2022-08-05T09:40:29.868Z,101967.00
2022-08-05T09:42:59.443Z,101975.44
2022-08-05T09:46:07.853Z,101982.34
2022-08-05T09:48:30.178Z,101992.66
2022-08-05T09:51:02.259Z,101990.19
2022-08-05T09:53:54.923Z,101994.84
2022-08-05T09:56:34.027Z,102000.34
2022-08-05T09:59:09.178Z,101992.81
2022-08-05T10:01:45.876Z,101995.66
2022-08-05T10:04:16.117Z,102004.06
2022-08-05T10:06:58.949Z,102007.88
2022-08-05T10:09:28.188Z,102004.56
2022-08-05T10:12:18.898Z,102003.75
2022-08-05T10:15:12.719Z,102005.28
2022-08-05T10:17:47.180Z,102006.97
2022-08-05T10:20:23.789Z,101998.69
2022-08-05T10:22:51.773Z,102008.25
2022-08-05T10:25:19.617Z,102006.22
2022-08-05T10:28:13.250Z,102013.03
2022-08-05T10:31:20.275Z,102011.78
2022-08-05T10:33:24.095Z,102013.84
2022-08-05T10:35:59.636Z,102016.66
2022-08-05T10:38:28.414Z,102021.28
2022-08-05T10:41:12.440Z,102024.56
2022-08-05T10:43:57.465Z,102014.13
2022-08-05T10:46:54.695Z,102019.44
2022-08-05T10:49:26.978Z,102017.75
2022-08-05T10:52:02.746Z,102009.22
2022-08-05T10:55:10.236Z,102022.09
2022-08-05T10:57:44.696Z,102024.91
2022-08-05T11:00:22.893Z,102029.03
2022-08-05T11:03:23.362Z,102031.16
2022-08-05T11:06:15.913Z,102050.00
2022-08-05T11:09:32.453Z,102047.38
2022-08-05T11:12:45.416Z,102054.47
2022-08-05T11:15:59.523Z,102052.69
2022-08-05T11:18:30.141Z,102067.25
2022-08-05T11:20:59.814Z,102057.16
2022-08-05T11:23:33.734Z,102066.66
2022-08-05T11:26:17.152Z,102067.78
2022-08-05T11:28:56.363Z,102069.38
2022-08-05T11:31:57.835Z,102073.63
2022-08-05T11:34:18.066Z,102066.78
2022-08-05T11:36:52.586Z,102070.66
2022-08-05T11:39:49.778Z,102064.38
2022-08-05T11:42:24.203Z,102074.25
2022-08-05T11:45:05.352Z,102093.56
2022-08-05T11:47:49.446Z,102097.97
2022-08-05T11:50:17.683Z,102115.13
2022-08-05T11:52:46.153Z,102122.22
2022-08-05T11:55:16.256Z,102116.13
2022-08-05T11:58:10.797Z,102116.50
2022-08-05T12:00:38.181Z,102129.56
2022-08-05T12:03:29.308Z,102127.16
2022-08-05T12:06:06.598Z,102133.38
2022-08-05T12:08:57.331Z,102134.28
2022-08-05T12:11:40.452Z,102121.28
2022-08-05T12:14:10.314Z,102120.72
2022-08-05T12:16:45.430Z,102129.81
2022-08-05T12:20:25.498Z,102133.50
2022-08-05T12:22:01.264Z,102140.38
2022-08-05T12:24:27.750Z,102137.19
2022-08-05T12:26:54.706Z,102136.84
2022-08-05T12:29:23.863Z,102141.16
2022-08-05T12:31:53.860Z,102148.06
2022-08-05T12:34:26.663Z,102146.22
2022-08-05T12:36:54.796Z,102159.78
2022-08-05T12:39:23.645Z,102165.59
2022-08-05T12:42:00.686Z,102167.63
2022-08-05T12:44:33.146Z,102174.31
2022-08-05T12:47:01.993Z,102170.19
2022-08-05T12:50:02.069Z,102170.66
2022-08-05T12:52:38.507Z,102174.97
2022-08-05T12:55:37.055Z,102169.88
2022-08-05T12:58:52.685Z,102168.47
2022-08-05T13:02:00.553Z,102176.63
2022-08-05T13:03:41.413Z,102185.47
2022-08-05T13:06:15.848Z,102181.63
2022-08-05T13:08:49.084Z,102185.22
2022-08-05T13:11:47.017Z,102175.78
2022-08-05T13:14:24.717Z,102187.63
2022-08-05T13:17:02.364Z,102180.19
2022-08-05T13:19:52.148Z,102178.63
2022-08-05T13:22:28.299Z,102186.06
2022-08-05T13:24:58.221Z,102191.31
2022-08-05T13:27:38.233Z,102192.56
2022-08-05T13:30:34.318Z,102198.34
2022-08-05T13:32:56.503Z,102194.94
2022-08-05T13:35:42.930Z,102202.84
2022-08-05T13:38:10.210Z,102216.78
2022-08-05T13:40:50.048Z,102223.63
2022-08-05T13:43:22.154Z,102216.16
2022-08-05T13:45:48.734Z,102217.34
2022-08-05T13:48:58.677Z,102213.59
2022-08-05T13:51:13.354Z,102217.84
2022-08-05T13:53:48.133Z,102217.84
2022-08-05T13:56:18.816Z,102227.19
2022-08-05T13:58:52.749Z,102225.63
2022-08-05T14:01:19.727Z,102222.63
2022-08-05T14:04:12.664Z,102220.94
2022-08-05T14:06:41.068Z,102212.97
2022-08-05T14:09:14.294Z,102230.97
2022-08-05T14:12:03.949Z,102232.94
2022-08-05T14:14:32.517Z,102235.25
2022-08-05T14:17:00.348Z,102239.63
2022-08-05T14:19:27.212Z,102238.47
2022-08-05T14:22:09.530Z,102239.19
2022-08-05T14:24:39.789Z,102240.41
2022-08-05T14:27:17.466Z,102255.34
2022-08-05T14:29:44.939Z,102249.19
2022-08-05T14:32:27.716Z,102254.28
2022-08-05T14:34:54.648Z,102260.38
2022-08-05T14:37:23.699Z,102261.44
2022-08-05T14:40:10.634Z,102268.22
2022-08-05T14:42:41.216Z,102257.94
2022-08-05T14:45:09.978Z,102265.03
2022-08-05T14:48:03.318Z,102265.16
2022-08-05T14:50:23.064Z,102258.06
2022-08-05T14:52:56.858Z,102271.59
2022-08-05T14:55:25.078Z,102268.91
2022-08-05T14:57:54.650Z,102272.81
2022-08-05T15:00:27.914Z,102276.00
2022-08-05T15:02:56.167Z,102274.34
2022-08-05T15:05:29.890Z,102275.66
2022-08-05T15:08:11.459Z,102281.78
2022-08-05T15:10:43.332Z,102280.47
2022-08-05T15:13:12.605Z,102278.50
2022-08-05T15:15:54.943Z,102278.47
2022-08-05T15:18:22.501Z,102287.53
2022-08-05T15:20:49.554Z,102284.84
2022-08-05T15:23:16.001Z,102289.53
2022-08-05T15:25:53.848Z,102288.84
2022-08-05T15:28:24.419Z,102288.50
2022-08-05T15:30:54.610Z,102291.22
2022-08-05T15:34:04.060Z,102295.59
2022-08-05T15:36:16.874Z,102295.91
2022-08-05T15:38:45.644Z,102308.97
2022-08-05T15:41:21.997Z,102303.25
2022-08-05T15:43:50.987Z,102305.97
2022-08-05T15:46:19.742Z,102300.44
2022-08-05T15:48:51.993Z,102300.22
2022-08-05T15:52:12.505Z,102314.63
2022-08-05T15:54:15.243Z,102305.88
2022-08-05T15:56:42.298Z,102310.88
2022-08-05T15:59:20.009Z,102306.91
2022-08-05T16:01:52.551Z,102297.22
2022-08-05T16:04:25.747Z,102290.53
2022-08-05T16:06:53.762Z,102302.28
2022-08-05T16:09:22.176Z,102304.13
2022-08-05T16:11:52.847Z,102312.66
2022-08-05T16:14:20.256Z,102318.63
2022-08-05T16:16:47.243Z,102315.28
2022-08-05T16:19:25.458Z,102322.59
2022-08-05T16:22:03.018Z,102322.50
2022-08-05T16:24:41.380Z,102321.53
2022-08-05T16:27:16.945Z,102333.34
2022-08-05T16:29:50.248Z,102337.56
2022-08-05T16:32:17.587Z,102333.72
2022-08-05T16:34:55.226Z,102328.69
2022-08-05T16:38:16.013Z,102334.34
2022-08-05T16:40:13.600Z,102347.19
2022-08-05T16:42:52.052Z,102350.94
2022-08-05T16:46:07.828Z,102350.44
2022-08-05T16:48:05.050Z,102357.53
2022-08-05T16:50:31.445Z,102352.34
2022-08-05T16:52:57.866Z,102357.03
2022-08-05T16:55:24.618Z,102369.78
2022-08-05T16:58:00.012Z,102362.22
2022-08-05T17:00:34.940Z,102364.69
2022-08-05T17:03:15.332Z,102367.22
2022-08-05T17:05:53.374Z,102356.03
2022-08-05T17:08:35.806Z,102365.81
2022-08-05T17:11:12.867Z,102372.44
2022-08-05T17:13:44.077Z,102373.44
2022-08-05T17:16:29.831Z,102376.38
2022-08-05T17:18:57.036Z,102383.38
2022-08-05T17:21:23.733Z,102377.56
2022-08-05T17:24:04.289Z,102379.19
2022-08-05T17:26:35.477Z,102385.06
2022-08-05T17:29:07.377Z,102388.91
2022-08-05T17:31:41.375Z,102378.09
2022-08-05T17:34:29.821Z,102387.44
2022-08-05T17:36:59.663Z,102385.75
2022-08-05T17:39:34.743Z,102394.22
2022-08-05T17:42:18.348Z,102397.03
2022-08-05T17:44:51.252Z,102406.66
2022-08-05T17:47:22.950Z,102407.84
2022-08-05T17:49:59.738Z,102413.47
2022-08-05T17:52:31.446Z,102417.13
2022-08-05T17:54:57.905Z,102417.44
2022-08-05T17:57:24.527Z,102426.91
2022-08-05T18:00:05.232Z,102425.50
2022-08-05T18:02:33.097Z,102423.75
2022-08-05T18:05:06.481Z,102432.91
2022-08-05T18:07:41.218Z,102437.81
2022-08-05T18:10:11.251Z,102434.41
2022-08-05T18:12:38.782Z,102440.91
2022-08-05T18:15:06.277Z,102445.69
2022-08-05T18:18:01.117Z,102445.97
2022-08-05T18:20:29.198Z,102443.19
2022-08-05T18:22:58.711Z,102453.84
2022-08-05T18:25:34.653Z,102459.81
2022-08-05T18:28:05.052Z,102465.72
2022-08-05T18:30:33.094Z,102471.19
2022-08-05T18:33:00.348Z,102476.78
2022-08-05T18:36:01.269Z,102461.91
2022-08-05T18:38:19.431Z,102472.16
2022-08-05T18:41:57.045Z,102472.59
2022-08-05T18:43:43.073Z,102483.69
2022-08-05T18:46:20.667Z,102487.75
2022-08-05T18:48:52.275Z,102485.00
2022-08-05T18:52:06.033Z,102485.53
2022-08-05T18:54:31.018Z,102491.84
2022-08-05T18:56:59.885Z,102491.97
2022-08-05T18:59:44.357Z,102494.31
2022-08-05T19:02:26.786Z,102503.44
2022-08-05T19:05:02.672Z,102503.41
2022-08-05T19:07:46.497Z,102505.63
2022-08-05T19:10:14.307Z,102502.78
2022-08-05T19:12:41.168Z,102508.66
2022-08-05T19:15:10.647Z,102511.00
2022-08-05T19:18:10.080Z,102510.56
2022-08-05T19:20:41.466Z,102511.78
2022-08-05T19:24:04.170Z,102523.38
2022-08-05T19:26:02.102Z,102520.16
2022-08-05T19:28:32.854Z,102526.81
2022-08-05T19:31:00.198Z,102525.22
2022-08-05T19:33:33.947Z,102542.91
2022-08-05T19:36:02.582Z,102542.91
2022-08-05T19:38:28.939Z,102535.91
2022-08-05T19:40:55.338Z,102537.63
2022-08-05T19:44:04.251Z,102535.22
2022-08-05T19:46:27.235Z,102547.03
2022-08-05T19:48:57.323Z,102549.50
2022-08-05T19:52:05.490Z,102553.38
2022-08-05T19:54:21.838Z,102562.06
2022-08-05T19:56:56.170Z,102557.78
2022-08-05T19:59:56.618Z,102562.41
2022-08-05T20:02:09.320Z,102570.13
2022-08-05T20:04:37.878Z,102576.41
2022-08-05T20:07:13.652Z,102575.00
2022-08-05T20:09:54.029Z,102577.16
2022-08-05T20:12:22.713Z,102583.56
2022-08-05T20:14:52.419Z,102588.63
2022-08-05T20:17:19.286Z,102584.78
2022-08-05T20:19:50.202Z,102589.47
2022-08-05T20:22:16.769Z,102591.91
2022-08-05T20:24:45.730Z,102593.94
2022-08-05T20:27:12.859Z,102599.66
2022-08-05T20:29:42.240Z,102601.47
2022-08-05T20:32:24.709Z,102605.94
2022-08-05T20:34:51.416Z,102601.31
2022-08-05T20:38:06.705Z,102595.75
2022-08-05T20:40:10.231Z,102613.88
2022-08-05T20:42:37.396Z,102607.34
2022-08-05T20:45:05.461Z,102624.00
2022-08-05T20:47:32.690Z,102618.81
2022-08-05T20:50:02.179Z,102614.69
2022-08-05T20:52:29.132Z,102625.19
2022-08-05T20:55:15.912Z,102629.50
2022-08-05T20:57:44.313Z,102634.00
2022-08-05T21:00:40.764Z,102636.03
2022-08-05T21:03:04.468Z,102635.63
2022-08-05T21:05:48.142Z,102639.69
2022-08-05T21:08:20.802Z,102640.59
2022-08-05T21:10:53.381Z,102642.75
2022-08-05T21:13:26.403Z,102648.50
2022-08-05T21:16:06.390Z,102642.38
2022-08-05T21:18:32.790Z,102640.50
2022-08-05T21:20:59.496Z,102649.00
2022-08-05T21:23:25.867Z,102646.69
2022-08-05T21:25:55.333Z,102653.13
2022-08-05T21:28:23.671Z,102646.47
2022-08-05T21:30:50.536Z,102651.81
2022-08-05T21:33:22.117Z,102648.84
2022-08-05T21:35:55.729Z,102648.22
2022-08-05T21:38:26.512Z,102652.25
2022-08-05T21:40:52.907Z,102649.25
2022-08-05T21:43:24.876Z,102656.91
2022-08-05T21:45:57.561Z,102659.44
2022-08-05T21:48:31.790Z,102660.91
2022-08-05T21:50:58.538Z,102663.00
2022-08-05T21:53:27.482Z,102666.44
2022-08-05T21:56:04.909Z,102674.38
2022-08-05T21:58:36.936Z,102667.47
2022-08-05T22:01:10.540Z,102672.97
2022-08-05T22:03:51.620Z,102674.13
2022-08-05T22:06:22.449Z,102670.00
2022-08-05T22:08:50.546Z,102670.41
2022-08-05T22:11:18.880Z,102680.22
2022-08-05T22:14:05.829Z,102674.41
2022-08-05T22:16:51.638Z,102672.06
2022-08-05T22:20:00.917Z,102675.22
2022-08-05T22:22:06.605Z,102675.59
2022-08-05T22:24:53.602Z,102679.19
2022-08-05T22:28:10.295Z,102680.44
2022-08-05T22:30:35.265Z,102672.59
2022-08-05T22:33:03.554Z,102686.97
2022-08-05T22:35:31.033Z,102689.72
2022-08-05T22:38:05.704Z,102690.84
2022-08-05T22:40:36.468Z,102690.97
2022-08-05T22:43:03.023Z,102698.34
2022-08-05T22:45:31.427Z,102693.34
2022-08-05T22:47:59.372Z,102698.00
2022-08-05T22:50:26.792Z,102699.50
2022-08-05T22:52:55.159Z,102702.00
2022-08-05T22:55:23.555Z,102696.31
2022-08-05T22:57:53.984Z,102708.78
2022-08-05T23:00:23.317Z,102701.06
2022-08-05T23:02:51.962Z,102706.53
2022-08-05T23:05:19.358Z,102708.22
2022-08-05T23:07:50.206Z,102706.91
2022-08-05T23:10:20.298Z,102709.19
2022-08-05T23:12:54.744Z,102705.31
2022-08-05T23:15:29.227Z,102721.53
2022-08-05T23:18:01.024Z,102716.34
2022-08-05T23:20:28.339Z,102713.88
2022-08-05T23:22:55.958Z,102728.22
2022-08-05T23:25:53.204Z,102723.97
2022-08-05T23:28:10.211Z,102731.25
2022-08-05T23:30:40.539Z,102737.63
2022-08-05T23:33:16.317Z,102731.97
2022-08-05T23:35:48.726Z,102737.50
2022-08-05T23:38:15.976Z,102739.31
2022-08-05T23:40:50.066Z,102740.25
2022-08-05T23:43:25.700Z,102738.72
2022-08-05T23:46:03.918Z,102741.13
2022-08-05T23:48:30.306Z,102743.28
2022-08-05T23:50:56.684Z,102747.84
2022-08-05T23:53:28.573Z,102741.81
2022-08-05T23:56:11.564Z,102749.06
2022-08-05T23:58:38.390Z,102760.38
